sensor_id;sensor_type;location;lat;lon;timestamp;pressure;altitude;pressure_sealevel;temperature;humidity
74079;BME280;62437;51.544;-3.276;2022-09-17T00:02:02;101827.91;;;10.16;43.51
74079;BME280;62437;51.544;-3.276;2022-09-17T00:04:28;101828.27;;;10.42;43.69
74079;BME280;62437;51.544;-3.276;2022-09-17T00:06:53;101826.36;;;10.34;43.24
74079;BME280;62437;51.544;-3.276;2022-09-17T00:09:19;101824.73;;;10.43;43.41
74079;BME280;62437;51.544;-3.276;2022-09-17T00:11:45;101829.03;;;10.21;43.78
74079;BME280;62437;51.544;-3.276;2022-09-17T00:14:13;101825.29;;;10.10;44.15
74079;BME280;62437;51.544;-3.276;2022-09-17T00:16:38;101826.91;;;10.27;43.73
74079;BME280;62437;51.544;-3.276;2022-09-17T00:19:04;101829.84;;;10.16;43.85
74079;BME280;62437;51.544;-3.276;2022-09-17T00:21:28;101835.35;;;10.08;43.83
74079;BME280;62437;51.544;-3.276;2022-09-17T00:23:55;101836.87;;;10.14;43.88
74079;BME280;62437;51.544;-3.276;2022-09-17T00:26:19;101836.00;;;10.30;43.55
74079;BME280;62437;51.544;-3.276;2022-09-17T00:28:48;101837.62;;;10.03;44.19
74079;BME280;62437;51.544;-3.276;2022-09-17T00:31:11;101835.78;;;9.97;44.06
74079;BME280;62437;51.544;-3.276;2022-09-17T00:33:37;101839.48;;;9.85;44.17
74079;BME280;62437;51.544;-3.276;2022-09-17T00:36:04;101844.25;;;9.86;44.41
74079;BME280;62437;51.544;-3.276;2022-09-17T00:38:29;101847.46;;;9.73;44.15
74079;BME280;62437;51.544;-3.276;2022-09-17T00:40:54;101840.89;;;9.55;44.29
74079;BME280;62437;51.544;-3.276;2022-09-17T00:43:34;101837.32;;;9.78;44.07
74079;BME280;62437;51.544;-3.276;2022-09-17T00:45:46;101831.15;;;9.76;43.94
74079;BME280;62437;51.544;-3.276;2022-09-17T00:48:11;101833.17;;;9.56;44.19
74079;BME280;62437;51.544;-3.276;2022-09-17T00:50:39;101831.20;;;9.52;44.84
74079;BME280;62437;51.544;-3.276;2022-09-17T00:53:05;101832.29;;;9.70;44.22
74079;BME280;62437;51.544;-3.276;2022-09-17T00:55:32;101831.98;;;9.74;44.09
74079;BME280;62437;51.544;-3.276;2022-09-17T00:57:57;101833.87;;;9.62;44.08
74079;BME280;62437;51.544;-3.276;2022-09-17T01:00:21;101832.69;;;9.79;44.15
74079;BME280;62437;51.544;-3.276;2022-09-17T01:02:46;101827.82;;;9.66;43.82
74079;BME280;62437;51.544;-3.276;2022-09-17T01:05:12;101826.88;;;9.31;44.05
74079;BME280;62437;51.544;-3.276;2022-09-17T01:07:52;101830.74;;;9.61;44.14
74079;BME280;62437;51.544;-3.276;2022-09-17T01:10:11;101833.07;;;9.55;44.28
74079;BME280;62437;51.544;-3.276;2022-09-17T01:12:38;101836.28;;;9.49;44.50
74079;BME280;62437;51.544;-3.276;2022-09-17T01:15:05;101837.35;;;9.44;44.17
74079;BME280;62437;51.544;-3.276;2022-09-17T01:17:27;101836.57;;;9.39;44.33
74079;BME280;62437;51.544;-3.276;2022-09-17T01:22:17;101836.20;;;9.88;43.76
74079;BME280;62437;51.544;-3.276;2022-09-17T01:24:47;101839.12;;;9.58;44.13
74079;BME280;62437;51.544;-3.276;2022-09-17T01:27:21;101836.67;;;9.64;44.21
74079;BME280;62437;51.544;-3.276;2022-09-17T01:29:45;101838.98;;;9.85;44.15
74079;BME280;62437;51.544;-3.276;2022-09-17T01:32:01;101836.61;;;9.08;44.76
74079;BME280;62437;51.544;-3.276;2022-09-17T01:34:27;101839.38;;;9.25;44.93
74079;BME280;62437;51.544;-3.276;2022-09-17T01:37:01;101841.10;;;9.28;45.13
74079;BME280;62437;51.544;-3.276;2022-09-17T01:39:21;101842.16;;;9.06;44.82
74079;BME280;62437;51.544;-3.276;2022-09-17T01:41:42;101842.14;;;9.02;44.36
74079;BME280;62437;51.544;-3.276;2022-09-17T01:44:10;101839.09;;;9.43;44.33
74079;BME280;62437;51.544;-3.276;2022-09-17T01:46:31;101843.24;;;9.23;44.68
74079;BME280;62437;51.544;-3.276;2022-09-17T01:49:00;101841.97;;;9.26;44.74
74079;BME280;62437;51.544;-3.276;2022-09-17T01:51:23;101842.32;;;8.84;44.84
74079;BME280;62437;51.544;-3.276;2022-09-17T01:53:51;101842.49;;;8.84;44.71
74079;BME280;62437;51.544;-3.276;2022-09-17T01:56:15;101842.88;;;8.99;44.74
74079;BME280;62437;51.544;-3.276;2022-09-17T01:58:43;101841.49;;;9.11;44.71
74079;BME280;62437;51.544;-3.276;2022-09-17T02:01:07;101840.51;;;8.87;44.93
74079;BME280;62437;51.544;-3.276;2022-09-17T02:03:36;101841.44;;;8.87;45.09
74079;BME280;62437;51.544;-3.276;2022-09-17T02:05:59;101843.20;;;8.99;45.12
74079;BME280;62437;51.544;-3.276;2022-09-17T02:08:24;101843.31;;;8.83;44.51
74079;BME280;62437;51.544;-3.276;2022-09-17T02:10:51;101843.65;;;9.28;44.53
74079;BME280;62437;51.544;-3.276;2022-09-17T02:13:16;101845.93;;;9.27;44.32
74079;BME280;62437;51.544;-3.276;2022-09-17T02:15:45;101843.91;;;8.90;45.17
74079;BME280;62437;51.544;-3.276;2022-09-17T02:18:07;101839.02;;;8.58;45.18
74079;BME280;62437;51.544;-3.276;2022-09-17T02:20:38;101836.13;;;9.03;44.98
74079;BME280;62437;51.544;-3.276;2022-09-17T02:23:00;101833.96;;;8.94;44.73
74079;BME280;62437;51.544;-3.276;2022-09-17T02:25:27;101831.26;;;8.93;45.24
74079;BME280;62437;51.544;-3.276;2022-09-17T02:27:54;101828.38;;;9.01;44.62
74079;BME280;62437;51.544;-3.276;2022-09-17T02:30:15;101829.52;;;8.93;45.28
74079;BME280;62437;51.544;-3.276;2022-09-17T02:32:45;101831.56;;;9.12;44.79
74079;BME280;62437;51.544;-3.276;2022-09-17T02:35:07;101833.76;;;8.83;44.82
74079;BME280;62437;51.544;-3.276;2022-09-17T02:37:32;101835.04;;;8.70;45.14
74079;BME280;62437;51.544;-3.276;2022-09-17T02:39:57;101835.70;;;8.76;45.05
74079;BME280;62437;51.544;-3.276;2022-09-17T02:42:29;101837.90;;;8.47;45.11
74079;BME280;62437;51.544;-3.276;2022-09-17T02:45:00;101837.70;;;8.77;45.12
74079;BME280;62437;51.544;-3.276;2022-09-17T02:47:31;101834.20;;;8.64;44.99
74079;BME280;62437;51.544;-3.276;2022-09-17T02:49:53;101832.07;;;8.91;45.05
74079;BME280;62437;51.544;-3.276;2022-09-17T02:52:13;101829.42;;;8.74;44.74
74079;BME280;62437;51.544;-3.276;2022-09-17T02:54:39;101829.43;;;8.55;44.99
74079;BME280;62437;51.544;-3.276;2022-09-17T02:57:11;101830.61;;;8.75;45.23
74079;BME280;62437;51.544;-3.276;2022-09-17T02:59:29;101834.71;;;8.50;45.12
74079;BME280;62437;51.544;-3.276;2022-09-17T03:01:55;101834.64;;;8.25;45.66
74079;BME280;62437;51.544;-3.276;2022-09-17T03:04:17;101832.06;;;8.20;45.85
74079;BME280;62437;51.544;-3.276;2022-09-17T03:06:42;101832.59;;;8.35;46.02
74079;BME280;62437;51.544;-3.276;2022-09-17T03:09:07;101830.35;;;8.46;45.05
74079;BME280;62437;51.544;-3.276;2022-09-17T03:11:33;101827.59;;;8.70;45.23
74079;BME280;62437;51.544;-3.276;2022-09-17T03:13:58;101829.28;;;8.34;45.21
74079;BME280;62437;51.544;-3.276;2022-09-17T03:16:24;101828.07;;;8.47;45.01
74079;BME280;62437;51.544;-3.276;2022-09-17T03:18:50;101829.66;;;8.43;45.46
74079;BME280;62437;51.544;-3.276;2022-09-17T03:21:16;101828.75;;;8.60;44.94
74079;BME280;62437;51.544;-3.276;2022-09-17T03:23:42;101828.81;;;8.31;45.29
74079;BME280;62437;51.544;-3.276;2022-09-17T03:26:07;101823.50;;;8.40;44.87
74079;BME280;62437;51.544;-3.276;2022-09-17T03:28:33;101820.07;;;8.23;45.51
74079;BME280;62437;51.544;-3.276;2022-09-17T03:30:59;101816.45;;;8.36;45.61
74079;BME280;62437;51.544;-3.276;2022-09-17T03:33:25;101816.22;;;8.48;45.61
74079;BME280;62437;51.544;-3.276;2022-09-17T03:35:51;101816.68;;;8.20;45.39
74079;BME280;62437;51.544;-3.276;2022-09-17T03:38:17;101815.05;;;8.58;45.19
74079;BME280;62437;51.544;-3.276;2022-09-17T03:40:42;101812.29;;;7.99;45.53
74079;BME280;62437;51.544;-3.276;2022-09-17T03:43:08;101802.77;;;8.30;45.52
74079;BME280;62437;51.544;-3.276;2022-09-17T03:45:34;101799.62;;;8.43;45.25
74079;BME280;62437;51.544;-3.276;2022-09-17T03:48:00;101799.30;;;8.31;45.58
74079;BME280;62437;51.544;-3.276;2022-09-17T03:50:25;101800.37;;;8.33;45.35
74079;BME280;62437;51.544;-3.276;2022-09-17T03:52:51;101804.28;;;7.98;45.46
74079;BME280;62437;51.544;-3.276;2022-09-17T03:55:17;101806.00;;;8.02;45.99
74079;BME280;62437;51.544;-3.276;2022-09-17T03:57:43;101809.81;;;8.10;45.89
74079;BME280;62437;51.544;-3.276;2022-09-17T04:00:10;101811.61;;;7.94;46.02
74079;BME280;62437;51.544;-3.276;2022-09-17T04:02:34;101807.85;;;7.99;46.09
74079;BME280;62437;51.544;-3.276;2022-09-17T04:05:00;101806.45;;;7.97;46.25
74079;BME280;62437;51.544;-3.276;2022-09-17T04:07:26;101804.90;;;7.92;46.00
74079;BME280;62437;51.544;-3.276;2022-09-17T04:09:52;101802.13;;;8.18;45.53
74079;BME280;62437;51.544;-3.276;2022-09-17T04:12:18;101799.76;;;8.27;45.38
74079;BME280;62437;51.544;-3.276;2022-09-17T04:14:43;101801.88;;;8.01;46.58
74079;BME280;62437;51.544;-3.276;2022-09-17T04:17:09;101799.94;;;7.89;46.84
74079;BME280;62437;51.544;-3.276;2022-09-17T04:19:35;101798.16;;;7.99;46.29
74079;BME280;62437;51.544;-3.276;2022-09-17T04:22:00;101797.51;;;8.10;45.96
74079;BME280;62437;51.544;-3.276;2022-09-17T04:24:26;101794.60;;;8.08;45.90
74079;BME280;62437;51.544;-3.276;2022-09-17T04:26:52;101794.15;;;7.75;46.26
74079;BME280;62437;51.544;-3.276;2022-09-17T04:29:18;101793.54;;;7.79;46.05
74079;BME280;62437;51.544;-3.276;2022-09-17T04:31:45;101793.21;;;7.80;46.24
74079;BME280;62437;51.544;-3.276;2022-09-17T04:34:09;101795.44;;;7.89;46.47
74079;BME280;62437;51.544;-3.276;2022-09-17T04:36:35;101802.44;;;7.96;46.38
74079;BME280;62437;51.544;-3.276;2022-09-17T04:39:01;101801.48;;;7.96;46.11
74079;BME280;62437;51.544;-3.276;2022-09-17T04:41:27;101804.03;;;7.70;46.05
74079;BME280;62437;51.544;-3.276;2022-09-17T04:43:52;101804.27;;;8.01;45.46
74079;BME280;62437;51.544;-3.276;2022-09-17T04:46:18;101804.30;;;8.06;45.50
74079;BME280;62437;51.544;-3.276;2022-09-17T04:48:44;101803.39;;;8.04;45.87
74079;BME280;62437;51.544;-3.276;2022-09-17T04:51:10;101805.72;;;7.79;45.85
74079;BME280;62437;51.544;-3.276;2022-09-17T04:53:35;101806.06;;;7.75;46.18
74079;BME280;62437;51.544;-3.276;2022-09-17T04:56:01;101810.63;;;7.82;45.65
74079;BME280;62437;51.544;-3.276;2022-09-17T04:58:27;101814.42;;;7.83;45.82
74079;BME280;62437;51.544;-3.276;2022-09-17T05:00:53;101818.52;;;7.73;45.88
74079;BME280;62437;51.544;-3.276;2022-09-17T05:03:19;101816.83;;;7.88;45.71
74079;BME280;62437;51.544;-3.276;2022-09-17T05:05:45;101817.21;;;7.88;45.54
74079;BME280;62437;51.544;-3.276;2022-09-17T05:08:10;101816.77;;;7.77;45.65
74079;BME280;62437;51.544;-3.276;2022-09-17T05:10:36;101813.08;;;7.64;46.07
74079;BME280;62437;51.544;-3.276;2022-09-17T05:13:02;101809.64;;;7.82;45.89
74079;BME280;62437;51.544;-3.276;2022-09-17T05:15:29;101808.13;;;7.64;46.24
74079;BME280;62437;51.544;-3.276;2022-09-17T05:17:54;101812.30;;;7.42;45.92
74079;BME280;62437;51.544;-3.276;2022-09-17T05:20:21;101814.10;;;7.59;46.18
74079;BME280;62437;51.544;-3.276;2022-09-17T05:22:47;101816.57;;;7.41;46.08
74079;BME280;62437;51.544;-3.276;2022-09-17T05:25:12;101817.35;;;7.52;45.78
74079;BME280;62437;51.544;-3.276;2022-09-17T05:27:38;101816.62;;;7.67;46.17
74079;BME280;62437;51.544;-3.276;2022-09-17T05:30:04;101817.74;;;7.73;45.74
74079;BME280;62437;51.544;-3.276;2022-09-17T05:32:28;101814.14;;;7.64;46.04
74079;BME280;62437;51.544;-3.276;2022-09-17T05:34:54;101812.58;;;7.38;46.27
74079;BME280;62437;51.544;-3.276;2022-09-17T05:37:20;101814.16;;;7.59;46.24
74079;BME280;62437;51.544;-3.276;2022-09-17T05:39:46;101816.33;;;7.56;46.29
74079;BME280;62437;51.544;-3.276;2022-09-17T05:42:12;101811.90;;;7.53;46.02
74079;BME280;62437;51.544;-3.276;2022-09-17T05:44:38;101813.65;;;7.48;46.38
74079;BME280;62437;51.544;-3.276;2022-09-17T05:47:04;101808.57;;;7.65;46.10
74079;BME280;62437;51.544;-3.276;2022-09-17T05:49:29;101806.24;;;7.25;46.19
74079;BME280;62437;51.544;-3.276;2022-09-17T05:51:55;101807.75;;;7.66;46.25
74079;BME280;62437;51.544;-3.276;2022-09-17T05:54:21;101810.23;;;7.69;46.05
74079;BME280;62437;51.544;-3.276;2022-09-17T05:56:47;101811.25;;;7.71;46.08
74079;BME280;62437;51.544;-3.276;2022-09-17T05:59:13;101809.03;;;7.56;46.17
74079;BME280;62437;51.544;-3.276;2022-09-17T06:01:38;101814.56;;;7.50;46.33
74079;BME280;62437;51.544;-3.276;2022-09-17T06:04:04;101813.26;;;7.77;46.20
74079;BME280;62437;51.544;-3.276;2022-09-17T06:06:30;101817.15;;;7.31;46.19
74079;BME280;62437;51.544;-3.276;2022-09-17T06:08:58;101818.59;;;7.35;46.61
74079;BME280;62437;51.544;-3.276;2022-09-17T06:11:22;101815.13;;;7.52;46.37
74079;BME280;62437;51.544;-3.276;2022-09-17T06:13:48;101816.46;;;7.44;46.27
74079;BME280;62437;51.544;-3.276;2022-09-17T06:16:13;101817.30;;;7.56;46.47
74079;BME280;62437;51.544;-3.276;2022-09-17T06:18:39;101820.04;;;7.94;46.06
74079;BME280;62437;51.544;-3.276;2022-09-17T06:21:05;101819.84;;;7.90;46.22
74079;BME280;62437;51.544;-3.276;2022-09-17T06:23:32;101819.13;;;7.30;46.60
74079;BME280;62437;51.544;-3.276;2022-09-17T06:25:58;101819.57;;;7.60;46.97
74079;BME280;62437;51.544;-3.276;2022-09-17T06:28:23;101824.51;;;7.53;47.30
74079;BME280;62437;51.544;-3.276;2022-09-17T06:30:48;101824.69;;;7.72;46.89
74079;BME280;62437;51.544;-3.276;2022-09-17T06:33:14;101826.92;;;7.78;46.93
74079;BME280;62437;51.544;-3.276;2022-09-17T06:35:40;101829.14;;;7.79;47.02
74079;BME280;62437;51.544;-3.276;2022-09-17T06:38:07;101829.76;;;7.88;47.20
74079;BME280;62437;51.544;-3.276;2022-09-17T06:40:31;101834.98;;;7.86;47.14
74079;BME280;62437;51.544;-3.276;2022-09-17T06:42:58;101837.46;;;7.73;47.46
74079;BME280;62437;51.544;-3.276;2022-09-17T06:45:23;101834.14;;;8.16;47.34
74079;BME280;62437;51.544;-3.276;2022-09-17T06:47:49;101831.36;;;8.34;46.98
74079;BME280;62437;51.544;-3.276;2022-09-17T06:50:14;101831.07;;;7.77;47.32
74079;BME280;62437;51.544;-3.276;2022-09-17T06:52:48;101831.34;;;8.38;47.76
74079;BME280;62437;51.544;-3.276;2022-09-17T06:55:07;101831.18;;;8.14;47.58
74079;BME280;62437;51.544;-3.276;2022-09-17T06:57:32;101834.39;;;8.30;46.46
74079;BME280;62437;51.544;-3.276;2022-09-17T06:59:57;101834.75;;;8.57;46.99
74079;BME280;62437;51.544;-3.276;2022-09-17T07:02:23;101837.25;;;8.90;46.47
74079;BME280;62437;51.544;-3.276;2022-09-17T07:04:49;101841.64;;;8.77;46.30
74079;BME280;62437;51.544;-3.276;2022-09-17T07:07:15;101843.24;;;8.47;47.04
74079;BME280;62437;51.544;-3.276;2022-09-17T07:09:40;101844.18;;;8.44;47.40
74079;BME280;62437;51.544;-3.276;2022-09-17T07:12:08;101843.34;;;8.38;47.08
74079;BME280;62437;51.544;-3.276;2022-09-17T07:14:32;101838.14;;;8.57;47.14
74079;BME280;62437;51.544;-3.276;2022-09-17T07:16:58;101835.07;;;8.64;46.74
74079;BME280;62437;51.544;-3.276;2022-09-17T07:19:24;101839.47;;;9.04;46.68
74079;BME280;62437;51.544;-3.276;2022-09-17T07:21:50;101841.14;;;8.90;46.47
74079;BME280;62437;51.544;-3.276;2022-09-17T07:24:15;101843.21;;;8.80;47.36
74079;BME280;62437;51.544;-3.276;2022-09-17T07:26:41;101844.00;;;8.99;47.53
74079;BME280;62437;51.544;-3.276;2022-09-17T07:29:07;101845.12;;;9.12;47.43
74079;BME280;62437;51.544;-3.276;2022-09-17T07:31:33;101841.14;;;9.15;47.14
74079;BME280;62437;51.544;-3.276;2022-09-17T07:33:59;101840.44;;;9.05;48.25
74079;BME280;62437;51.544;-3.276;2022-09-17T07:36:24;101831.28;;;9.21;47.82
74079;BME280;62437;51.544;-3.276;2022-09-17T07:38:50;101829.97;;;9.07;47.90
74079;BME280;62437;51.544;-3.276;2022-09-17T07:41:16;101830.60;;;9.47;46.80
74079;BME280;62437;51.544;-3.276;2022-09-17T07:43:43;101828.84;;;9.43;47.29
74079;BME280;62437;51.544;-3.276;2022-09-17T07:46:13;101825.16;;;9.56;47.12
74079;BME280;62437;51.544;-3.276;2022-09-17T07:48:33;101823.49;;;9.51;47.64
74079;BME280;62437;51.544;-3.276;2022-09-17T07:50:59;101821.16;;;9.68;47.39
74079;BME280;62437;51.544;-3.276;2022-09-17T07:53:25;101824.95;;;9.75;48.07
74079;BME280;62437;51.544;-3.276;2022-09-17T07:55:52;101828.09;;;9.60;47.22
74079;BME280;62437;51.544;-3.276;2022-09-17T07:58:17;101827.84;;;9.87;47.32
74079;BME280;62437;51.544;-3.276;2022-09-17T08:00:42;101823.49;;;9.76;47.45
74079;BME280;62437;51.544;-3.276;2022-09-17T08:03:08;101825.90;;;9.91;47.39
74079;BME280;62437;51.544;-3.276;2022-09-17T08:05:34;101827.39;;;10.07;47.36
74079;BME280;62437;51.544;-3.276;2022-09-17T08:08:00;101830.17;;;9.70;47.79
74079;BME280;62437;51.544;-3.276;2022-09-17T08:10:26;101835.29;;;10.27;47.44
74079;BME280;62437;51.544;-3.276;2022-09-17T08:12:55;101839.87;;;10.18;47.46
74079;BME280;62437;51.544;-3.276;2022-09-17T08:15:17;101840.32;;;10.48;46.24
74079;BME280;62437;51.544;-3.276;2022-09-17T08:17:44;101837.32;;;10.49;46.87
74079;BME280;62437;51.544;-3.276;2022-09-17T08:20:09;101841.53;;;10.67;46.48
74079;BME280;62437;51.544;-3.276;2022-09-17T08:22:34;101843.97;;;10.63;47.12
74079;BME280;62437;51.544;-3.276;2022-09-17T08:25:00;101836.53;;;10.91;46.41
74079;BME280;62437;51.544;-3.276;2022-09-17T08:27:26;101837.13;;;10.96;47.24
74079;BME280;62437;51.544;-3.276;2022-09-17T08:29:52;101833.39;;;11.31;46.59
74079;BME280;62437;51.544;-3.276;2022-09-17T08:32:18;101839.98;;;11.26;46.90
74079;BME280;62437;51.544;-3.276;2022-09-17T08:34:43;101839.35;;;11.33;46.98
74079;BME280;62437;51.544;-3.276;2022-09-17T08:37:09;101840.32;;;11.05;47.43
74079;BME280;62437;51.544;-3.276;2022-09-17T08:39:35;101841.87;;;10.85;47.89
74079;BME280;62437;51.544;-3.276;2022-09-17T08:42:06;101837.94;;;11.44;46.77
74079;BME280;62437;51.544;-3.276;2022-09-17T08:44:29;101837.07;;;11.76;46.17
74079;BME280;62437;51.544;-3.276;2022-09-17T08:46:53;101837.36;;;12.11;45.36
74079;BME280;62437;51.544;-3.276;2022-09-17T08:49:31;101840.46;;;11.67;46.04
74079;BME280;62437;51.544;-3.276;2022-09-17T08:51:51;101841.02;;;11.66;46.05
74079;BME280;62437;51.544;-3.276;2022-09-17T08:54:14;101845.68;;;11.36;46.44
74079;BME280;62437;51.544;-3.276;2022-09-17T08:56:34;101848.69;;;11.71;46.23
74079;BME280;62437;51.544;-3.276;2022-09-17T08:59:12;101847.70;;;11.98;46.19
74079;BME280;62437;51.544;-3.276;2022-09-17T09:01:32;101845.78;;;11.80;46.52
74079;BME280;62437;51.544;-3.276;2022-09-17T09:04:03;101848.43;;;12.04;46.83
74079;BME280;62437;51.544;-3.276;2022-09-17T09:06:17;101844.75;;;11.91;46.61
74079;BME280;62437;51.544;-3.276;2022-09-17T09:08:47;101844.76;;;12.39;45.84
74079;BME280;62437;51.544;-3.276;2022-09-17T09:11:13;101849.12;;;11.75;47.30
74079;BME280;62437;51.544;-3.276;2022-09-17T09:13:37;101847.79;;;11.84;46.95
74079;BME280;62437;51.544;-3.276;2022-09-17T09:16:02;101845.79;;;11.63;48.20
74079;BME280;62437;51.544;-3.276;2022-09-17T09:18:28;101848.82;;;12.09;46.25
74079;BME280;62437;51.544;-3.276;2022-09-17T09:20:53;101848.59;;;12.17;46.56
74079;BME280;62437;51.544;-3.276;2022-09-17T09:23:19;101844.84;;;12.89;45.83
74079;BME280;62437;51.544;-3.276;2022-09-17T09:25:51;101843.62;;;13.03;45.36
74079;BME280;62437;51.544;-3.276;2022-09-17T09:28:28;101839.93;;;12.27;45.71
74079;BME280;62437;51.544;-3.276;2022-09-17T09:30:48;101839.14;;;12.66;44.65
74079;BME280;62437;51.544;-3.276;2022-09-17T09:33:06;101836.75;;;13.05;45.02
74079;BME280;62437;51.544;-3.276;2022-09-17T09:35:26;101842.95;;;12.98;44.78
74079;BME280;62437;51.544;-3.276;2022-09-17T09:37:55;101843.72;;;12.98;44.78
74079;BME280;62437;51.544;-3.276;2022-09-17T09:40:26;101843.45;;;12.88;45.04
74079;BME280;62437;51.544;-3.276;2022-09-17T09:42:43;101843.06;;;13.17;45.14
74079;BME280;62437;51.544;-3.276;2022-09-17T09:45:13;101845.82;;;13.21;43.69
74079;BME280;62437;51.544;-3.276;2022-09-17T09:47:44;101844.60;;;13.25;43.51
74079;BME280;62437;51.544;-3.276;2022-09-17T09:50:09;101844.96;;;13.44;44.06
74079;BME280;62437;51.544;-3.276;2022-09-17T09:52:37;101846.22;;;13.50;42.40
74079;BME280;62437;51.544;-3.276;2022-09-17T09:54:59;101848.23;;;13.47;43.71
74079;BME280;62437;51.544;-3.276;2022-09-17T09:57:19;101852.35;;;13.37;43.72
74079;BME280;62437;51.544;-3.276;2022-09-17T09:59:42;101853.58;;;13.59;42.87
74079;BME280;62437;51.544;-3.276;2022-09-17T10:02:08;101853.41;;;13.65;43.00
74079;BME280;62437;51.544;-3.276;2022-09-17T10:04:33;101850.50;;;13.56;42.88
74079;BME280;62437;51.544;-3.276;2022-09-17T10:07:02;101850.96;;;14.13;43.26
74079;BME280;62437;51.544;-3.276;2022-09-17T10:09:25;101853.22;;;13.86;43.15
74079;BME280;62437;51.544;-3.276;2022-09-17T10:12:00;101849.64;;;13.70;43.78
74079;BME280;62437;51.544;-3.276;2022-09-17T10:14:23;101845.42;;;13.91;42.21
74079;BME280;62437;51.544;-3.276;2022-09-17T10:16:42;101844.83;;;14.09;43.48
74079;BME280;62437;51.544;-3.276;2022-09-17T10:19:12;101847.53;;;14.35;43.13
74079;BME280;62437;51.544;-3.276;2022-09-17T10:21:35;101843.34;;;13.84;44.26
74079;BME280;62437;51.544;-3.276;2022-09-17T10:24:01;101845.10;;;14.46;43.08
74079;BME280;62437;51.544;-3.276;2022-09-17T10:26:27;101840.10;;;14.19;41.80
74079;BME280;62437;51.544;-3.276;2022-09-17T10:28:51;101837.93;;;14.68;42.97
74079;BME280;62437;51.544;-3.276;2022-09-17T10:31:15;101835.16;;;14.70;41.38
74079;BME280;62437;51.544;-3.276;2022-09-17T10:33:51;101826.93;;;14.45;42.17
74079;BME280;62437;51.544;-3.276;2022-09-17T10:36:11;101828.79;;;14.87;41.96
74079;BME280;62437;51.544;-3.276;2022-09-17T10:38:35;101830.55;;;14.79;42.58
74079;BME280;62437;51.544;-3.276;2022-09-17T10:41:10;101827.96;;;13.87;42.79
74079;BME280;62437;51.544;-3.276;2022-09-17T10:43:24;101833.50;;;14.67;42.15
74079;BME280;62437;51.544;-3.276;2022-09-17T10:45:56;101834.93;;;14.79;40.96
74079;BME280;62437;51.544;-3.276;2022-09-17T10:48:17;101833.43;;;14.87;41.93
74079;BME280;62437;51.544;-3.276;2022-09-17T10:50:47;101829.08;;;14.72;40.57
74079;BME280;62437;51.544;-3.276;2022-09-17T10:53:14;101826.34;;;15.54;41.59
74079;BME280;62437;51.544;-3.276;2022-09-17T10:55:33;101832.87;;;14.60;39.99
74079;BME280;62437;51.544;-3.276;2022-09-17T10:58:03;101832.42;;;14.91;39.33
74079;BME280;62437;51.544;-3.276;2022-09-17T11:00:24;101834.03;;;14.54;39.29
74079;BME280;62437;51.544;-3.276;2022-09-17T11:03:03;101824.27;;;14.82;39.59
74079;BME280;62437;51.544;-3.276;2022-09-17T11:05:25;101825.34;;;15.58;39.54
74079;BME280;62437;51.544;-3.276;2022-09-17T11:07:44;101823.47;;;15.22;40.60
74079;BME280;62437;51.544;-3.276;2022-09-17T11:10:12;101821.97;;;15.41;37.50
74079;BME280;62437;51.544;-3.276;2022-09-17T11:12:39;101821.60;;;15.35;40.70
74079;BME280;62437;51.544;-3.276;2022-09-17T11:15:00;101815.99;;;15.18;41.64
74079;BME280;62437;51.544;-3.276;2022-09-17T11:19:54;101812.23;;;15.21;39.98
74079;BME280;62437;51.544;-3.276;2022-09-17T11:22:21;101809.25;;;15.44;39.41
74079;BME280;62437;51.544;-3.276;2022-09-17T11:24:54;101809.19;;;15.82;38.75
74079;BME280;62437;51.544;-3.276;2022-09-17T11:27:10;101808.97;;;15.64;38.69
74079;BME280;62437;51.544;-3.276;2022-09-17T11:29:47;101802.43;;;15.85;38.71
74079;BME280;62437;51.544;-3.276;2022-09-17T11:32:02;101796.54;;;16.15;38.00
74079;BME280;62437;51.544;-3.276;2022-09-17T11:34:27;101789.94;;;15.65;40.51
74079;BME280;62437;51.544;-3.276;2022-09-17T11:36:51;101784.62;;;16.17;39.45
74079;BME280;62437;51.544;-3.276;2022-09-17T11:39:16;101778.29;;;15.79;38.81
74079;BME280;62437;51.544;-3.276;2022-09-17T11:41:41;101773.13;;;15.95;39.40
74079;BME280;62437;51.544;-3.276;2022-09-17T11:44:08;101770.77;;;15.76;38.49
74079;BME280;62437;51.544;-3.276;2022-09-17T11:46:33;101765.41;;;16.34;38.99
74079;BME280;62437;51.544;-3.276;2022-09-17T11:49:00;101763.30;;;16.15;37.92
74079;BME280;62437;51.544;-3.276;2022-09-17T11:51:25;101761.90;;;16.64;38.29
74079;BME280;62437;51.544;-3.276;2022-09-17T11:53:49;101763.52;;;16.25;36.71
74079;BME280;62437;51.544;-3.276;2022-09-17T11:56:16;101762.88;;;15.96;36.95
74079;BME280;62437;51.544;-3.276;2022-09-17T11:58:42;101768.84;;;16.19;39.34
74079;BME280;62437;51.544;-3.276;2022-09-17T12:01:08;101769.50;;;16.17;36.99
74079;BME280;62437;51.544;-3.276;2022-09-17T12:03:33;101767.33;;;16.38;35.95
74079;BME280;62437;51.544;-3.276;2022-09-17T12:05:57;101762.77;;;16.43;36.43
74079;BME280;62437;51.544;-3.276;2022-09-17T12:08:23;101765.33;;;16.73;36.73
74079;BME280;62437;51.544;-3.276;2022-09-17T12:10:50;101767.00;;;16.38;38.60
74079;BME280;62437;51.544;-3.276;2022-09-17T12:13:18;101768.22;;;16.76;37.64
74079;BME280;62437;51.544;-3.276;2022-09-17T12:15:41;101764.51;;;16.55;36.55
74079;BME280;62437;51.544;-3.276;2022-09-17T12:18:14;101765.43;;;16.34;39.84
74079;BME280;62437;51.544;-3.276;2022-09-17T12:20:31;101761.08;;;16.36;39.06
74079;BME280;62437;51.544;-3.276;2022-09-17T12:22:56;101756.32;;;16.47;37.87
74079;BME280;62437;51.544;-3.276;2022-09-17T12:25:21;101754.04;;;16.67;37.38
74079;BME280;62437;51.544;-3.276;2022-09-17T12:27:51;101758.43;;;16.47;37.45
74079;BME280;62437;51.544;-3.276;2022-09-17T12:30:12;101749.97;;;16.59;36.73
74079;BME280;62437;51.544;-3.276;2022-09-17T12:32:51;101747.33;;;16.60;38.34
74079;BME280;62437;51.544;-3.276;2022-09-17T12:35:12;101741.33;;;17.32;37.35
74079;BME280;62437;51.544;-3.276;2022-09-17T12:37:33;101738.89;;;17.00;39.47
74079;BME280;62437;51.544;-3.276;2022-09-17T12:40:03;101732.13;;;16.75;37.49
74079;BME280;62437;51.544;-3.276;2022-09-17T12:42:28;101729.91;;;16.90;37.21